Time;durP1;ratioP1;P1;durP2;ratioP2;P2;SDS_P1;SDS_P2;PMS_P1;PMS_P2;Temp;Humidity;BMP_temperature;BMP_pressure;BME280_temperature;BME280_humidity;BME280_pressure;Samples;Min_cycle;Max_cycle;Signal;HPM_P1;HPM_P2
2022/10/31 00:01:21;;;;;;;2.30;1.30;;;;;;;;;;6122225;23;20017;-86
2022/10/31 00:03:50;;;;;;;1.45;1.27;;;;;;;;;;6124837;23;20355;-86
2022/10/31 00:06:21;;;;;;;2.20;1.60;;;;;;;;;;6125080;23;20026;-86
2022/10/31 00:08:53;;;;;;;5.25;1.95;;;;;;;;;;6122149;23;20017;-85
2022/10/31 00:11:24;;;;;;;1.65;1.30;;;;;;;;;;6123479;23;20022;-85
2022/10/31 00:13:53;;;;;;;5.63;2.20;;;;;;;;;;6125247;23;20018;-85
2022/10/31 00:16:22;;;;;;;2.67;1.42;;;;;;;;;;6123271;23;20376;-85
2022/10/31 00:18:52;;;;;;;2.55;1.27;;;;;;;;;;6123531;23;20026;-85
2022/10/31 00:21:23;;;;;;;3.78;1.33;;;;;;;;;;6121854;23;20026;-85
2022/10/31 00:23:51;;;;;;;2.75;1.63;;;;;;;;;;6122793;23;20483;-85
2022/10/31 00:26:20;;;;;;;2.60;1.50;;;;;;;;;;6126628;23;20026;-85
2022/10/31 00:28:52;;;;;;;3.67;2.08;;;;;;;;;;6127276;23;20022;-84
2022/10/31 00:31:21;;;;;;;3.25;1.63;;;;;;;;;;6124174;23;20022;-85
2022/10/31 00:33:49;;;;;;;3.40;1.05;;;;;;;;;;6125900;23;20026;-84
2022/10/31 00:36:20;;;;;;;17.45;1.48;;;;;;;;;;6126042;23;20076;-84
2022/10/31 00:38:49;;;;;;;4.65;1.63;;;;;;;;;;6124084;23;20057;-84
2022/10/31 00:41:18;;;;;;;4.38;2.38;;;;;;;;;;6124151;23;20018;-84
2022/10/31 00:43:46;;;;;;;2.45;1.40;;;;;;;;;;6123088;23;20486;-84
2022/10/31 00:46:15;;;;;;;2.20;1.17;;;;;;;;;;6124708;23;20048;-84
2022/10/31 00:48:43;;;;;;;2.13;1.30;;;;;;;;;;6123078;23;20026;-84
2022/10/31 00:51:12;;;;;;;2.20;1.52;;;;;;;;;;6124155;23;20228;-85
2022/10/31 00:53:41;;;;;;;3.03;1.13;;;;;;;;;;6123703;23;20032;-84
2022/10/31 00:56:10;;;;;;;2.28;1.38;;;;;;;;;;6123403;23;20013;-84
2022/10/31 00:58:38;;;;;;;2.53;1.38;;;;;;;;;;6122414;23;20022;-85
2022/10/31 01:01:08;;;;;;;4.82;1.77;;;;;;;;;;6123408;23;20049;-84
2022/10/31 01:03:38;;;;;;;2.28;1.35;;;;;;;;;;6124142;23;20029;-84
2022/10/31 01:06:09;;;;;;;3.28;1.52;;;;;;;;;;6122944;23;20045;-84
2022/10/31 01:08:38;;;;;;;1.85;1.65;;;;;;;;;;6122546;23;20438;-84
2022/10/31 01:11:10;;;;;;;3.60;1.38;;;;;;;;;;6122956;23;20021;-84
2022/10/31 01:13:38;;;;;;;3.22;1.23;;;;;;;;;;6123832;23;20025;-85
2022/10/31 01:16:09;;;;;;;5.97;2.10;;;;;;;;;;6123771;23;20478;-85
2022/10/31 01:18:38;;;;;;;1.73;0.98;;;;;;;;;;6123526;23;20022;-84
2022/10/31 01:21:07;;;;;;;1.90;1.25;;;;;;;;;;6122916;23;20013;-82
2022/10/31 01:23:36;;;;;;;2.92;1.27;;;;;;;;;;6124304;23;20018;-84
2022/10/31 01:26:05;;;;;;;1.83;1.02;;;;;;;;;;6125030;23;20474;-84
2022/10/31 01:28:36;;;;;;;3.83;0.90;;;;;;;;;;6124415;23;20489;-84
2022/10/31 01:31:05;;;;;;;4.35;1.73;;;;;;;;;;6123547;23;20030;-85
2022/10/31 01:33:34;;;;;;;4.07;1.23;;;;;;;;;;6124123;23;20025;-85
2022/10/31 01:36:03;;;;;;;1.52;1.02;;;;;;;;;;6123307;23;20476;-85
2022/10/31 01:38:32;;;;;;;2.67;1.23;;;;;;;;;;6123795;23;20467;-84
2022/10/31 01:41:00;;;;;;;2.00;1.30;;;;;;;;;;6124469;23;20101;-84
2022/10/31 01:43:44;;;;;;;3.08;1.42;;;;;;;;;;6124331;23;20020;-84
2022/10/31 01:46:14;;;;;;;2.47;1.42;;;;;;;;;;6124556;23;20033;-84
2022/10/31 01:48:42;;;;;;;1.58;1.15;;;;;;;;;;6120489;23;20028;-86
2022/10/31 01:51:13;;;;;;;3.88;1.50;;;;;;;;;;6123459;23;20108;-84
2022/10/31 01:53:41;;;;;;;2.10;1.58;;;;;;;;;;6125289;23;20387;-85
2022/10/31 01:56:10;;;;;;;2.53;1.10;;;;;;;;;;6126756;23;20029;-85
2022/10/31 01:58:39;;;;;;;1.65;1.02;;;;;;;;;;6123645;23;20019;-85
2022/10/31 02:01:07;;;;;;;2.38;1.40;;;;;;;;;;6125942;23;20026;-85
2022/10/31 02:03:37;;;;;;;2.00;1.08;;;;;;;;;;6125274;23;20045;-84
2022/10/31 02:06:08;;;;;;;1.08;0.95;;;;;;;;;;6124937;23;20022;-84
2022/10/31 02:08:36;;;;;;;4.53;1.45;;;;;;;;;;6123357;23;20034;-84
2022/10/31 02:11:05;;;;;;;3.08;1.52;;;;;;;;;;6124164;23;20037;-84
2022/10/31 02:13:35;;;;;;;2.92;1.30;;;;;;;;;;6127040;23;20026;-84
2022/10/31 02:16:03;;;;;;;8.90;1.45;;;;;;;;;;6125845;23;20025;-85
2022/10/31 02:18:32;;;;;;;4.43;1.55;;;;;;;;;;6126331;23;20033;-84
2022/10/31 02:21:04;;;;;;;1.90;1.23;;;;;;;;;;6125188;23;20029;-84
2022/10/31 02:23:47;;;;;;;1.88;1.17;;;;;;;;;;6125748;23;20033;-84
2022/10/31 02:26:28;;;;;;;6.05;1.70;;;;;;;;;;6126207;23;20072;-84
2022/10/31 02:29:23;;;;;;;2.58;1.13;;;;;;;;;;6126389;23;20573;-84
2022/10/31 02:31:56;;;;;;;4.93;1.35;;;;;;;;;;6074932;23;20025;-85
2022/10/31 02:34:28;;;;;;;1.75;1.10;;;;;;;;;;6126263;23;20022;-84
2022/10/31 02:36:59;;;;;;;1.80;1.17;;;;;;;;;;6126120;23;20018;-84
2022/10/31 02:39:30;;;;;;;4.18;1.30;;;;;;;;;;6125940;23;20022;-85
2022/10/31 02:42:05;;;;;;;4.70;1.70;;;;;;;;;;6125568;23;20317;-84
2022/10/31 02:44:38;;;;;;;2.03;1.20;;;;;;;;;;6125557;23;20030;-85
2022/10/31 02:47:11;;;;;;;1.30;1.17;;;;;;;;;;6126879;23;20049;-84
2022/10/31 02:49:41;;;;;;;8.13;2.20;;;;;;;;;;6126212;23;20018;-84
2022/10/31 02:52:20;;;;;;;1.02;0.85;;;;;;;;;;6125303;23;20041;-84
2022/10/31 02:54:49;;;;;;;2.47;1.13;;;;;;;;;;6125264;23;20022;-84
2022/10/31 02:57:20;;;;;;;3.47;1.35;;;;;;;;;;6125779;23;20108;-85
2022/10/31 02:59:50;;;;;;;4.75;1.95;;;;;;;;;;6125421;23;20100;-84
2022/10/31 03:02:24;;;;;;;2.80;1.15;;;;;;;;;;6125938;23;20029;-84
2022/10/31 03:05:09;;;;;;;6.95;1.25;;;;;;;;;;6125893;23;20260;-84
2022/10/31 03:07:42;;;;;;;1.50;1.17;;;;;;;;;;6125687;23;20028;-84
2022/10/31 03:10:16;;;;;;;2.60;1.13;;;;;;;;;;6124449;23;20053;-84
2022/10/31 03:12:50;;;;;;;2.95;1.20;;;;;;;;;;6123007;23;20025;-86
2022/10/31 03:15:20;;;;;;;3.20;1.77;;;;;;;;;;6124491;23;20451;-84
2022/10/31 03:17:54;;;;;;;1.55;1.17;;;;;;;;;;6125292;23;20249;-85
2022/10/31 03:20:27;;;;;;;2.95;0.90;;;;;;;;;;6125718;23;20025;-84
2022/10/31 03:22:56;;;;;;;3.72;1.42;;;;;;;;;;6125257;23;20022;-82
2022/10/31 03:25:25;;;;;;;1.50;1.05;;;;;;;;;;6126170;23;20028;-84
2022/10/31 03:27:53;;;;;;;1.67;0.88;;;;;;;;;;6124606;23;20021;-84
2022/10/31 03:30:22;;;;;;;1.45;0.73;;;;;;;;;;6125722;23;20515;-84
2022/10/31 03:32:55;;;;;;;4.18;1.52;;;;;;;;;;6124388;23;20024;-85
2022/10/31 03:35:25;;;;;;;2.47;0.95;;;;;;;;;;6124921;23;20018;-85
2022/10/31 03:37:55;;;;;;;1.98;0.98;;;;;;;;;;6125083;23;20028;-85
2022/10/31 03:40:28;;;;;;;1.75;1.63;;;;;;;;;;6125927;23;20025;-85
2022/10/31 03:42:59;;;;;;;2.13;1.10;;;;;;;;;;6123900;23;20022;-84
2022/10/31 03:45:30;;;;;;;1.42;0.90;;;;;;;;;;6125366;23;20041;-86
2022/10/31 03:48:00;;;;;;;5.47;1.52;;;;;;;;;;6124950;23;20351;-84
2022/10/31 03:50:32;;;;;;;1.52;1.05;;;;;;;;;;6126063;23;20025;-84
2022/10/31 03:53:05;;;;;;;4.45;1.00;;;;;;;;;;6124023;23;20363;-84
2022/10/31 03:55:36;;;;;;;1.35;0.80;;;;;;;;;;6126543;23;20022;-84
2022/10/31 03:58:07;;;;;;;4.38;1.67;;;;;;;;;;6125248;23;20356;-84
2022/10/31 04:00:36;;;;;;;1.38;0.98;;;;;;;;;;6125687;23;20025;-84
2022/10/31 04:03:08;;;;;;;2.92;1.27;;;;;;;;;;6124056;23;20026;-82
2022/10/31 04:05:42;;;;;;;0.95;0.77;;;;;;;;;;6124954;23;20346;-83
2022/10/31 04:08:13;;;;;;;7.97;1.33;;;;;;;;;;6124279;23;20022;-84
2022/10/31 04:10:44;;;;;;;1.90;0.90;;;;;;;;;;6123925;23;20030;-83
2022/10/31 04:13:15;;;;;;;0.98;0.85;;;;;;;;;;6123619;23;20030;-84
2022/10/31 04:15:45;;;;;;;1.17;0.98;;;;;;;;;;6123878;23;20105;-86
2022/10/31 04:18:14;;;;;;;3.67;1.00;;;;;;;;;;6123949;23;20061;-84
2022/10/31 04:20:43;;;;;;;1.77;1.27;;;;;;;;;;6123501;23;20024;-84
2022/10/31 04:23:15;;;;;;;2.15;0.88;;;;;;;;;;6124950;23;20018;-84
2022/10/31 04:25:44;;;;;;;2.13;1.25;;;;;;;;;;6126055;23;20025;-84
2022/10/31 04:28:12;;;;;;;8.13;1.25;;;;;;;;;;6123929;23;20018;-84
2022/10/31 04:30:40;;;;;;;2.97;2.15;;;;;;;;;;6124843;23;20026;-84
2022/10/31 04:33:08;;;;;;;1.40;1.10;;;;;;;;;;6125016;23;20040;-84
2022/10/31 04:35:38;;;;;;;2.40;1.20;;;;;;;;;;6125195;23;20471;-84
2022/10/31 04:38:06;;;;;;;2.70;1.50;;;;;;;;;;6126513;23;20104;-84
2022/10/31 04:40:35;;;;;;;1.42;0.95;;;;;;;;;;6124598;23;20037;-85
2022/10/31 04:43:05;;;;;;;2.33;1.10;;;;;;;;;;6124072;23;20333;-85
2022/10/31 04:45:34;;;;;;;3.30;1.20;;;;;;;;;;6124676;23;20400;-85
2022/10/31 04:48:02;;;;;;;4.55;1.27;;;;;;;;;;6125839;23;20040;-85
2022/10/31 04:50:31;;;;;;;1.35;0.93;;;;;;;;;;6124042;23;20022;-83
2022/10/31 04:53:01;;;;;;;2.58;1.60;;;;;;;;;;6124749;23;20026;-85
2022/10/31 04:55:29;;;;;;;9.48;1.30;;;;;;;;;;6124532;23;20025;-85
2022/10/31 04:57:57;;;;;;;2.35;1.40;;;;;;;;;;6124654;23;20080;-85
2022/10/31 05:00:26;;;;;;;1.83;1.20;;;;;;;;;;6123856;23;20053;-84
2022/10/31 05:02:56;;;;;;;2.78;1.00;;;;;;;;;;6124419;23;20032;-84
2022/10/31 05:05:25;;;;;;;2.40;1.10;;;;;;;;;;6123943;23;20030;-85
2022/10/31 05:07:54;;;;;;;8.75;1.33;;;;;;;;;;6124478;23;20101;-85
2022/10/31 05:10:25;;;;;;;1.83;0.68;;;;;;;;;;6124217;23;20025;-84
2022/10/31 05:12:54;;;;;;;1.60;0.75;;;;;;;;;;6123120;23;20363;-84
2022/10/31 05:15:23;;;;;;;1.05;0.80;;;;;;;;;;6123119;23;20089;-85
2022/10/31 05:17:52;;;;;;;1.67;0.85;;;;;;;;;;6125528;23;20022;-85
2022/10/31 05:20:21;;;;;;;4.38;0.95;;;;;;;;;;6124495;23;20022;-85
2022/10/31 05:22:52;;;;;;;0.85;0.85;;;;;;;;;;6124188;23;20026;-85
2022/10/31 05:25:21;;;;;;;1.13;0.93;;;;;;;;;;6123835;23;20101;-84
2022/10/31 05:27:52;;;;;;;3.70;0.98;;;;;;;;;;6123593;23;20032;-84
2022/10/31 05:30:21;;;;;;;1.65;0.88;;;;;;;;;;6124812;23;20017;-84
2022/10/31 05:32:50;;;;;;;2.85;1.15;;;;;;;;;;6123343;23;20383;-85
2022/10/31 05:35:19;;;;;;;5.80;1.38;;;;;;;;;;6122640;23;20486;-84
2022/10/31 05:37:48;;;;;;;2.10;1.10;;;;;;;;;;6121029;23;20447;-85
2022/10/31 05:40:17;;;;;;;2.08;0.75;;;;;;;;;;6124583;23;20072;-84
2022/10/31 05:42:45;;;;;;;0.50;0.50;;;;;;;;;;6123098;23;20018;-85
2022/10/31 05:45:16;;;;;;;1.15;0.70;;;;;;;;;;6124610;23;20025;-84
2022/10/31 05:47:51;;;;;;;3.22;1.00;;;;;;;;;;6123276;23;20026;-85
2022/10/31 05:50:19;;;;;;;1.90;0.90;;;;;;;;;;6124265;23;20485;-84
2022/10/31 05:52:48;;;;;;;0.95;0.90;;;;;;;;;;6124564;23;20502;-85
2022/10/31 05:55:16;;;;;;;1.67;1.05;;;;;;;;;;6125339;23;20412;-85
2022/10/31 05:57:45;;;;;;;4.03;1.35;;;;;;;;;;6123521;23;20022;-86
2022/10/31 06:00:14;;;;;;;3.63;1.20;;;;;;;;;;6125418;23;20443;-85
2022/10/31 06:02:46;;;;;;;3.17;0.98;;;;;;;;;;6122585;23;20026;-85
2022/10/31 06:05:16;;;;;;;1.35;0.85;;;;;;;;;;6122187;23;20104;-85
2022/10/31 06:07:44;;;;;;;4.45;0.98;;;;;;;;;;6122057;23;20026;-85
2022/10/31 06:10:13;;;;;;;0.73;0.73;;;;;;;;;;6124809;23;20026;-85
2022/10/31 06:12:41;;;;;;;4.68;0.95;;;;;;;;;;6123942;23;20017;-84
2022/10/31 06:15:10;;;;;;;3.42;0.75;;;;;;;;;;6124176;23;20022;-86
2022/10/31 06:17:41;;;;;;;10.38;2.30;;;;;;;;;;6124658;23;20022;-85
2022/10/31 06:20:12;;;;;;;2.60;1.27;;;;;;;;;;6125059;23;20026;-85
2022/10/31 06:22:40;;;;;;;0.93;0.77;;;;;;;;;;6122925;23;20022;-85
2022/10/31 06:25:08;;;;;;;1.00;0.55;;;;;;;;;;6123906;23;20383;-85
2022/10/31 06:27:37;;;;;;;1.48;0.85;;;;;;;;;;6122765;23;20022;-83
2022/10/31 06:30:06;;;;;;;2.13;0.88;;;;;;;;;;6123607;23;20347;-84
2022/10/31 06:32:34;;;;;;;1.00;0.73;;;;;;;;;;6123846;23;20026;-85
2022/10/31 06:35:02;;;;;;;6.55;0.63;;;;;;;;;;6124819;23;20029;-84
2022/10/31 06:37:32;;;;;;;2.22;0.88;;;;;;;;;;6124635;23;20034;-84
2022/10/31 06:40:02;;;;;;;3.25;1.17;;;;;;;;;;6127108;23;20022;-84
2022/10/31 06:42:33;;;;;;;1.73;1.33;;;;;;;;;;6125375;23;20037;-84
2022/10/31 06:45:02;;;;;;;2.22;1.13;;;;;;;;;;6126720;23;20025;-84
2022/10/31 06:47:30;;;;;;;2.05;1.25;;;;;;;;;;6124741;23;20029;-84
2022/10/31 06:49:59;;;;;;;1.77;0.95;;;;;;;;;;6124953;23;20026;-83
2022/10/31 06:52:27;;;;;;;2.45;0.88;;;;;;;;;;6125403;23;20089;-84
2022/10/31 06:54:57;;;;;;;2.25;0.88;;;;;;;;;;6122478;23;20358;-84
2022/10/31 06:57:25;;;;;;;4.22;1.52;;;;;;;;;;6122287;23;20032;-84
2022/10/31 06:59:54;;;;;;;1.63;1.23;;;;;;;;;;6122090;23;20029;-84
2022/10/31 07:02:22;;;;;;;4.65;1.83;;;;;;;;;;6121339;23;20034;-85
2022/10/31 07:04:50;;;;;;;1.98;1.00;;;;;;;;;;6121673;23;20074;-85
2022/10/31 07:07:21;;;;;;;1.42;0.60;;;;;;;;;;6122623;23;20336;-84
2022/10/31 07:09:49;;;;;;;2.47;1.25;;;;;;;;;;6123038;23;20049;-84
2022/10/31 07:12:19;;;;;;;0.50;0.50;;;;;;;;;;6121541;23;20025;-84
2022/10/31 07:14:48;;;;;;;2.67;0.90;;;;;;;;;;6121957;23;20053;-85
2022/10/31 07:17:17;;;;;;;2.35;1.23;;;;;;;;;;6120997;23;20325;-84
2022/10/31 07:19:45;;;;;;;2.90;1.02;;;;;;;;;;6120156;23;20459;-85
2022/10/31 07:22:13;;;;;;;1.98;1.20;;;;;;;;;;6119885;23;20026;-84
2022/10/31 07:24:42;;;;;;;2.67;0.90;;;;;;;;;;6122137;23;20030;-85
2022/10/31 07:27:10;;;;;;;4.93;1.27;;;;;;;;;;6122379;23;20032;-84
2022/10/31 07:29:42;;;;;;;1.25;1.00;;;;;;;;;;6122514;23;20040;-84
2022/10/31 07:32:10;;;;;;;0.95;0.57;;;;;;;;;;6120914;23;20022;-85
2022/10/31 07:34:39;;;;;;;2.00;1.33;;;;;;;;;;6122738;23;20017;-84
2022/10/31 07:37:14;;;;;;;6.80;1.35;;;;;;;;;;6121262;23;20530;-85
2022/10/31 07:39:42;;;;;;;1.13;0.70;;;;;;;;;;6124763;23;20339;-84
2022/10/31 07:42:11;;;;;;;2.28;1.08;;;;;;;;;;6121840;23;20026;-85
2022/10/31 07:44:40;;;;;;;0.45;0.40;;;;;;;;;;6120363;23;20018;-85
2022/10/31 07:47:11;;;;;;;2.17;1.25;;;;;;;;;;6120621;23;20026;-84
2022/10/31 07:49:40;;;;;;;2.03;1.23;;;;;;;;;;6121389;23;20335;-85
2022/10/31 07:52:08;;;;;;;1.25;0.98;;;;;;;;;;6120804;23;20028;-84
2022/10/31 07:54:37;;;;;;;1.08;0.73;;;;;;;;;;6123325;23;20097;-83
2022/10/31 07:57:05;;;;;;;2.80;1.15;;;;;;;;;;6124334;23;20481;-84
2022/10/31 07:59:34;;;;;;;1.25;0.98;;;;;;;;;;6123847;23;20025;-84
2022/10/31 08:02:04;;;;;;;2.80;1.50;;;;;;;;;;6122329;23;20021;-84
2022/10/31 08:04:32;;;;;;;2.25;1.20;;;;;;;;;;6124891;23;20018;-84
2022/10/31 08:07:01;;;;;;;1.45;0.88;;;;;;;;;;6125176;23;20332;-84
2022/10/31 08:09:30;;;;;;;1.35;0.90;;;;;;;;;;6124121;23;20032;-84
2022/10/31 08:12:01;;;;;;;1.17;1.00;;;;;;;;;;6125534;23;20033;-85
2022/10/31 08:14:33;;;;;;;0.93;0.73;;;;;;;;;;6126731;23;20064;-84
2022/10/31 08:17:06;;;;;;;2.85;0.90;;;;;;;;;;6126648;23;20105;-85
2022/10/31 08:19:34;;;;;;;2.22;1.40;;;;;;;;;;6125388;23;20466;-85
2022/10/31 08:22:03;;;;;;;3.00;1.17;;;;;;;;;;6122679;23;20089;-84
2022/10/31 08:24:32;;;;;;;2.15;0.73;;;;;;;;;;6124936;23;20092;-85
2022/10/31 08:27:01;;;;;;;0.70;0.65;;;;;;;;;;6122799;23;20088;-85
2022/10/31 08:29:30;;;;;;;2.45;0.82;;;;;;;;;;6124621;23;20026;-85
2022/10/31 08:31:59;;;;;;;2.47;0.85;;;;;;;;;;6123249;23;20029;-84
2022/10/31 08:34:29;;;;;;;3.92;1.20;;;;;;;;;;6124500;23;20037;-84
2022/10/31 08:36:58;;;;;;;2.80;1.23;;;;;;;;;;6125720;23;20057;-85
2022/10/31 08:39:27;;;;;;;2.80;1.58;;;;;;;;;;6122866;23;20435;-85
2022/10/31 08:41:56;;;;;;;5.80;1.85;;;;;;;;;;6123443;23;20452;-85
2022/10/31 08:44:25;;;;;;;5.50;1.60;;;;;;;;;;6124560;23;20056;-84
2022/10/31 08:46:54;;;;;;;2.33;1.00;;;;;;;;;;6125017;23;20029;-85
2022/10/31 08:49:22;;;;;;;1.55;1.20;;;;;;;;;;6121876;23;20037;-85
2022/10/31 08:51:52;;;;;;;3.63;1.10;;;;;;;;;;6123174;23;20026;-85
2022/10/31 08:54:21;;;;;;;4.72;1.35;;;;;;;;;;6123364;23;20060;-85
2022/10/31 08:56:55;;;;;;;4.05;1.95;;;;;;;;;;6122878;23;20097;-85
2022/10/31 08:59:24;;;;;;;9.00;2.05;;;;;;;;;;6124375;23;20490;-85
2022/10/31 09:01:52;;;;;;;2.63;1.90;;;;;;;;;;6124326;23;20028;-85
2022/10/31 09:04:21;;;;;;;3.20;1.23;;;;;;;;;;6123286;23;20022;-85
2022/10/31 09:06:50;;;;;;;2.67;2.15;;;;;;;;;;6124192;23;20053;-85
2022/10/31 09:09:40;;;;;;;2.22;1.33;;;;;;;;;;6120719;23;20033;-85
2022/10/31 09:12:09;;;;;;;2.08;1.15;;;;;;;;;;6122143;23;20455;-85
2022/10/31 09:14:38;;;;;;;4.05;1.00;;;;;;;;;;6122739;23;20114;-85
2022/10/31 09:17:06;;;;;;;1.13;0.75;;;;;;;;;;6123472;23;20060;-83
2022/10/31 09:19:36;;;;;;;3.75;1.80;;;;;;;;;;6125119;23;20060;-86
2022/10/31 09:22:04;;;;;;;2.92;1.45;;;;;;;;;;6124686;23;20022;-86
2022/10/31 09:24:33;;;;;;;5.45;1.15;;;;;;;;;;6124695;23;20032;-85
2022/10/31 09:27:03;;;;;;;4.95;1.58;;;;;;;;;;6125158;23;20025;-85
2022/10/31 09:29:31;;;;;;;3.42;1.35;;;;;;;;;;6124715;23;20490;-85
2022/10/31 09:32:00;;;;;;;1.65;1.00;;;;;;;;;;6123924;23;20102;-85
2022/10/31 09:34:28;;;;;;;1.52;0.80;;;;;;;;;;6125386;23;20025;-86
2022/10/31 09:36:57;;;;;;;1.17;1.02;;;;;;;;;;6132278;23;20093;-85
2022/10/31 09:39:25;;;;;;;5.13;2.13;;;;;;;;;;6140149;23;20025;-85
2022/10/31 09:42:03;;;;;;;1.52;1.42;;;;;;;;;;6138378;23;20021;-86
2022/10/31 09:44:40;;;;;;;1.02;0.90;;;;;;;;;;6140558;23;20074;-85
2022/10/31 09:47:12;;;;;;;1.95;1.45;;;;;;;;;;6139607;23;20056;-86
2022/10/31 09:49:51;;;;;;;2.53;1.55;;;;;;;;;;6129816;23;20025;-87
2022/10/31 09:52:23;;;;;;;7.32;1.63;;;;;;;;;;6123084;23;20024;-86
2022/10/31 09:54:53;;;;;;;2.72;0.93;;;;;;;;;;6124507;23;20355;-86
2022/10/31 09:57:26;;;;;;;3.33;1.25;;;;;;;;;;6125715;23;20033;-86
2022/10/31 09:59:57;;;;;;;4.32;0.85;;;;;;;;;;6125914;23;20026;-86
2022/10/31 10:02:29;;;;;;;2.78;0.98;;;;;;;;;;6124933;23;20036;-86
2022/10/31 10:04:59;;;;;;;9.52;0.90;;;;;;;;;;6125010;23;20558;-86
2022/10/31 10:07:34;;;;;;;2.35;1.40;;;;;;;;;;6125780;23;20069;-86
2022/10/31 10:10:04;;;;;;;3.42;1.25;;;;;;;;;;6126593;23;20033;-85
2022/10/31 10:12:41;;;;;;;1.70;1.15;;;;;;;;;;6124019;23;20022;-87
2022/10/31 10:15:28;;;;;;;1.52;0.52;;;;;;;;;;6125714;23;20387;-86
2022/10/31 10:18:03;;;;;;;2.13;1.27;;;;;;;;;;6126829;23;20033;-86
2022/10/31 10:20:35;;;;;;;1.83;0.90;;;;;;;;;;6125950;23;20021;-86
2022/10/31 10:23:12;;;;;;;5.78;0.77;;;;;;;;;;6126044;23;20034;-86
2022/10/31 10:25:41;;;;;;;2.05;0.90;;;;;;;;;;6126368;23;20028;-86
2022/10/31 10:28:15;;;;;;;0.88;0.65;;;;;;;;;;6127065;23;20073;-86
2022/10/31 10:30:46;;;;;;;2.63;0.70;;;;;;;;;;6124616;23;20028;-86
2022/10/31 10:33:16;;;;;;;7.93;1.35;;;;;;;;;;6121667;23;20488;-84
2022/10/31 10:35:46;;;;;;;2.85;0.80;;;;;;;;;;6124626;23;20022;-86
2022/10/31 10:38:17;;;;;;;2.90;1.40;;;;;;;;;;6125532;23;20101;-86
2022/10/31 10:40:46;;;;;;;5.63;0.90;;;;;;;;;;6123968;23;20028;-86
2022/10/31 10:43:21;;;;;;;1.42;0.82;;;;;;;;;;6122111;23;20527;-86
2022/10/31 10:48:43;;;;;;;1.45;0.88;;;;;;;;;;6121843;23;20411;-86
2022/10/31 10:51:22;;;;;;;1.20;0.50;;;;;;;;;;6121604;23;20032;-87
2022/10/31 10:54:37;;;;;;;2.28;0.63;;;;;;;;;;6122738;23;20022;-86
2022/10/31 10:57:06;;;;;;;;;;;;;;;;;;6086992;23;20045;-86
2022/10/31 10:59:34;;;;;;;1.23;0.68;;;;;;;;;;6123390;23;19927;-86
2022/10/31 11:02:05;;;;;;;7.20;0.70;;;;;;;;;;6121591;23;20034;-86
2022/10/31 11:04:36;;;;;;;1.80;0.75;;;;;;;;;;6122562;23;20033;-86
2022/10/31 11:07:05;;;;;;;0.98;0.70;;;;;;;;;;6122198;23;20465;-86
2022/10/31 11:09:34;;;;;;;1.25;0.60;;;;;;;;;;6120399;23;20100;-86
2022/10/31 11:12:08;;;;;;;0.82;0.55;;;;;;;;;;6119657;23;20041;-86
2022/10/31 11:14:39;;;;;;;1.85;0.93;;;;;;;;;;6121645;23;20029;-86
2022/10/31 11:17:17;;;;;;;1.58;0.63;;;;;;;;;;6121999;23;20108;-86
2022/10/31 11:19:46;;;;;;;0.70;0.63;;;;;;;;;;6100103;23;20439;-87
2022/10/31 11:22:19;;;;;;;2.75;0.75;;;;;;;;;;6126329;23;20018;-88
2022/10/31 11:24:47;;;;;;;1.17;1.08;;;;;;;;;;6126078;23;20108;-88
2022/10/31 11:27:17;;;;;;;0.77;0.70;;;;;;;;;;6124018;23;20022;-87
2022/10/31 11:29:46;;;;;;;0.60;0.60;;;;;;;;;;6124199;23;20034;-87
2022/10/31 11:32:20;;;;;;;0.50;0.40;;;;;;;;;;6121939;23;20022;-88
2022/10/31 11:34:50;;;;;;;0.90;0.65;;;;;;;;;;6124183;23;20022;-88
2022/10/31 11:37:21;;;;;;;1.40;0.45;;;;;;;;;;6124407;23;20080;-89
2022/10/31 11:39:53;;;;;;;3.60;1.10;;;;;;;;;;6124168;23;20071;-88
2022/10/31 11:42:23;;;;;;;2.50;0.93;;;;;;;;;;6122140;23;20085;-87
2022/10/31 11:44:52;;;;;;;1.02;0.60;;;;;;;;;;6124508;23;20097;-88
2022/10/31 11:47:25;;;;;;;3.05;0.55;;;;;;;;;;6123109;23;20018;-88
2022/10/31 11:49:53;;;;;;;1.58;0.57;;;;;;;;;;6125019;23;20021;-89
2022/10/31 11:52:24;;;;;;;4.50;1.15;;;;;;;;;;6122298;23;20336;-89
2022/10/31 11:54:55;;;;;;;1.42;0.70;;;;;;;;;;6123211;23;20097;-89
2022/10/31 11:57:25;;;;;;;1.27;0.80;;;;;;;;;;6123186;23;20029;-88
2022/10/31 11:59:54;;;;;;;4.82;0.80;;;;;;;;;;6122811;23;20463;-88
2022/10/31 12:02:24;;;;;;;1.63;0.65;;;;;;;;;;6122857;23;20026;-88
2022/10/31 12:04:58;;;;;;;1.50;0.38;;;;;;;;;;6122946;23;20018;-88
2022/10/31 12:07:27;;;;;;;2.92;0.63;;;;;;;;;;6122891;23;20024;-88
2022/10/31 12:09:55;;;;;;;0.57;0.45;;;;;;;;;;6122777;23;20030;-88
2022/10/31 12:12:33;;;;;;;2.83;0.80;;;;;;;;;;6122085;23;20025;-89
2022/10/31 12:15:07;;;;;;;1.42;0.73;;;;;;;;;;6124047;23;20025;-89
2022/10/31 12:17:43;;;;;;;1.60;1.17;;;;;;;;;;6120875;23;20680;-88
2022/10/31 12:20:15;;;;;;;2.95;1.00;;;;;;;;;;6121993;23;20022;-88
2022/10/31 12:22:46;;;;;;;1.85;0.93;;;;;;;;;;6122786;23;20030;-89
2022/10/31 12:25:23;;;;;;;3.92;1.23;;;;;;;;;;6122919;23;20494;-88
2022/10/31 12:28:13;;;;;;;4.72;0.80;;;;;;;;;;6125643;23;20077;-88
2022/10/31 12:30:49;;;;;;;0.77;0.47;;;;;;;;;;6121799;23;20057;-89
2022/10/31 12:33:32;;;;;;;3.28;1.00;;;;;;;;;;6118738;23;20447;-86
2022/10/31 12:36:09;;;;;;;0.73;0.45;;;;;;;;;;6120355;23;20463;-87
2022/10/31 12:38:48;;;;;;;2.95;1.35;;;;;;;;;;6123377;23;20029;-87
2022/10/31 12:41:26;;;;;;;7.60;0.70;;;;;;;;;;6121083;23;20037;-87
2022/10/31 12:43:58;;;;;;;2.65;0.80;;;;;;;;;;6122565;23;20265;-86
2022/10/31 12:46:34;;;;;;;3.00;0.85;;;;;;;;;;6121889;23;20028;-86
2022/10/31 12:49:12;;;;;;;0.80;0.32;;;;;;;;;;6122447;23;20022;-86
2022/10/31 12:51:47;;;;;;;4.95;0.90;;;;;;;;;;6121765;23;20037;-89
2022/10/31 12:54:21;;;;;;;1.13;0.60;;;;;;;;;;6122433;23;20033;-86
2022/10/31 12:56:54;;;;;;;3.43;0.93;;;;;;;;;;6122663;23;20018;-87
2022/10/31 12:59:26;;;;;;;4.70;0.85;;;;;;;;;;6121672;23;20250;-86
2022/10/31 13:01:57;;;;;;;2.78;0.98;;;;;;;;;;6119904;23;20017;-86
2022/10/31 13:04:32;;;;;;;1.48;1.20;;;;;;;;;;6124349;23;20060;-85
2022/10/31 13:07:04;;;;;;;3.30;0.98;;;;;;;;;;6121144;23;20030;-88
2022/10/31 13:09:36;;;;;;;1.05;0.60;;;;;;;;;;6124079;23;20025;-87
2022/10/31 13:12:09;;;;;;;7.47;1.73;;;;;;;;;;6124335;23;20053;-88
2022/10/31 13:14:41;;;;;;;6.22;1.02;;;;;;;;;;6124135;23;20348;-88
2022/10/31 13:17:15;;;;;;;0.40;0.38;;;;;;;;;;6126119;23;20525;-88
2022/10/31 13:19:46;;;;;;;1.83;0.77;;;;;;;;;;6125245;23;20355;-87
2022/10/31 13:22:20;;;;;;;1.10;0.45;;;;;;;;;;6123247;23;20037;-87
2022/10/31 13:24:54;;;;;;;4.67;0.73;;;;;;;;;;6122590;23;20029;-88
2022/10/31 13:27:24;;;;;;;1.73;0.70;;;;;;;;;;6122963;23;20018;-88
2022/10/31 13:29:58;;;;;;;4.75;0.88;;;;;;;;;;6126648;23;20041;-88
2022/10/31 13:32:28;;;;;;;0.55;0.55;;;;;;;;;;6120803;23;20033;-92
2022/10/31 13:34:58;;;;;;;1.95;1.23;;;;;;;;;;6127466;23;20227;-93
2022/10/31 13:37:31;;;;;;;2.67;0.80;;;;;;;;;;6127125;23;20104;-96
2022/10/31 13:40:14;;;;;;;0.90;0.75;;;;;;;;;;6127752;23;20093;-96
2022/10/31 13:42:48;;;;;;;2.00;0.85;;;;;;;;;;6128166;23;20060;-96
2022/10/31 13:45:18;;;;;;;2.45;1.35;;;;;;;;;;6129713;23;20018;-96
2022/10/31 13:47:56;;;;;;;4.53;0.80;;;;;;;;;;6126847;23;20053;-96
2022/10/31 13:50:26;;;;;;;5.70;1.02;;;;;;;;;;6127792;23;20018;-96
2022/10/31 13:53:10;;;;;;;4.22;1.58;;;;;;;;;;6128032;23;20279;-96
2022/10/31 13:55:41;;;;;;;1.10;0.93;;;;;;;;;;6132001;23;20021;-95
2022/10/31 13:58:27;;;;;;;4.20;1.38;;;;;;;;;;6135282;23;20021;-95
2022/10/31 14:01:00;;;;;;;1.52;1.42;;;;;;;;;;6134976;23;20033;-96
2022/10/31 14:03:31;;;;;;;1.50;0.77;;;;;;;;;;6137136;23;20022;-96
2022/10/31 14:06:21;;;;;;;6.15;0.80;;;;;;;;;;6134395;23;20096;-96
2022/10/31 14:08:53;;;;;;;1.92;1.30;;;;;;;;;;6132386;23;20384;-96
2022/10/31 14:11:26;;;;;;;2.75;1.40;;;;;;;;;;6125638;23;20028;-96
2022/10/31 14:14:04;;;;;;;2.88;1.38;;;;;;;;;;6124964;23;20073;-96
2022/10/31 14:16:37;;;;;;;3.38;1.27;;;;;;;;;;6126859;23;20018;-93
2022/10/31 14:19:08;;;;;;;2.55;1.52;;;;;;;;;;6104415;23;20022;-96
2022/10/31 14:21:39;;;;;;;1.38;0.70;;;;;;;;;;6128128;23;20503;-96
2022/10/31 14:24:16;;;;;;;3.85;0.98;;;;;;;;;;6124919;23;20022;-95
2022/10/31 14:26:55;;;;;;;1.00;0.85;;;;;;;;;;6124069;23;20045;-92
2022/10/31 14:29:28;;;;;;;3.35;1.02;;;;;;;;;;6126087;23;20321;-96
2022/10/31 14:31:59;;;;;;;4.32;1.35;;;;;;;;;;6121636;23;20430;-96
2022/10/31 14:34:30;;;;;;;2.85;1.05;;;;;;;;;;6121810;23;20523;-95
2022/10/31 14:37:12;;;;;;;3.17;1.73;;;;;;;;;;6122490;23;20033;-94
2022/10/31 14:39:50;;;;;;;4.50;1.88;;;;;;;;;;6122129;23;20022;-96
2022/10/31 14:42:27;;;;;;;6.82;1.17;;;;;;;;;;6120708;23;20225;-94
2022/10/31 14:45:07;;;;;;;11.85;2.95;;;;;;;;;;6122187;23;20022;-95
2022/10/31 14:47:41;;;;;;;4.80;1.88;;;;;;;;;;6117941;23;20026;-95
2022/10/31 14:50:24;;;;;;;3.25;1.27;;;;;;;;;;6117521;23;20034;-93
2022/10/31 14:52:55;;;;;;;7.22;2.05;;;;;;;;;;6116990;23;20033;-95
2022/10/31 14:55:26;;;;;;;2.92;1.85;;;;;;;;;;6119020;23;20045;-93
2022/10/31 15:01:31;;;;;;;5.45;2.13;;;;;;;;;;6130299;23;20032;-89
2022/10/31 15:04:22;;;;;;;2.45;1.08;;;;;;;;;;6155491;23;20076;-89
2022/10/31 15:07:13;;;;;;;4.78;1.70;;;;;;;;;;6155410;23;20025;-89
2022/10/31 15:09:46;;;;;;;5.35;1.33;;;;;;;;;;6157454;23;20451;-88
2022/10/31 15:12:33;;;;;;;3.08;1.15;;;;;;;;;;6156161;23;20101;-89
2022/10/31 15:15:36;;;;;;;3.10;1.55;;;;;;;;;;6155712;23;20467;-90